sensor_id;sensor_type;location;lat;lon;timestamp;pressure;altitude;pressure_sealevel;temperature;humidity
4273;BME280;63887;53.656;9.810;2023-05-25T00:01:50;102466.91;;;9.63;93.79
4273;BME280;63887;53.656;9.810;2023-05-25T00:04:18;102462.78;;;9.53;94.68
4273;BME280;63887;53.656;9.810;2023-05-25T00:06:45;102465.78;;;9.73;93.94
4273;BME280;63887;53.656;9.810;2023-05-25T00:09:11;102470.81;;;9.45;94.73
4273;BME280;63887;53.656;9.810;2023-05-25T00:11:38;102460.25;;;9.85;93.70
4273;BME280;63887;53.656;9.810;2023-05-25T00:14:04;102467.84;;;9.96;92.83
4273;BME280;63887;53.656;9.810;2023-05-25T00:16:33;102466.91;;;9.63;93.56
4273;BME280;63887;53.656;9.810;2023-05-25T00:19:01;102463.28;;;9.69;94.22
4273;BME280;63887;53.656;9.810;2023-05-25T00:21:28;102463.34;;;9.67;94.90
4273;BME280;63887;53.656;9.810;2023-05-25T00:23:54;102457.66;;;9.85;92.66
4273;BME280;63887;53.656;9.810;2023-05-25T00:26:20;102457.34;;;9.98;92.32
4273;BME280;63887;53.656;9.810;2023-05-25T00:28:46;102459.63;;;9.76;92.95
4273;BME280;63887;53.656;9.810;2023-05-25T00:31:13;102460.72;;;9.66;93.26
4273;BME280;63887;53.656;9.810;2023-05-25T00:33:40;102452.97;;;9.61;94.66
4273;BME280;63887;53.656;9.810;2023-05-25T00:36:07;102448.41;;;9.32;95.72
4273;BME280;63887;53.656;9.810;2023-05-25T00:38:33;102460.88;;;9.60;95.11
4273;BME280;63887;53.656;9.810;2023-05-25T00:41:00;102452.50;;;9.81;93.79
4273;BME280;63887;53.656;9.810;2023-05-25T00:43:26;102448.16;;;9.80;93.25
4273;BME280;63887;53.656;9.810;2023-05-25T00:45:52;102453.19;;;9.52;93.92
4273;BME280;63887;53.656;9.810;2023-05-25T00:48:19;102458.84;;;9.72;93.70
4273;BME280;63887;53.656;9.810;2023-05-25T00:50:46;102461.28;;;9.43;95.09
4273;BME280;63887;53.656;9.810;2023-05-25T00:53:13;102462.81;;;9.51;94.58
4273;BME280;63887;53.656;9.810;2023-05-25T00:55:40;102456.34;;;9.29;96.84
4273;BME280;63887;53.656;9.810;2023-05-25T00:58:06;102453.91;;;9.59;95.29
4273;BME280;63887;53.656;9.810;2023-05-25T01:00:33;102453.84;;;9.62;94.15
4273;BME280;63887;53.656;9.810;2023-05-25T01:03:00;102461.56;;;9.68;94.82
4273;BME280;63887;53.656;9.810;2023-05-25T01:05:29;102460.06;;;9.57;94.78
4273;BME280;63887;53.656;9.810;2023-05-25T01:08:00;102458.19;;;9.63;94.22
4273;BME280;63887;53.656;9.810;2023-05-25T01:10:28;102459.66;;;9.36;95.16
4273;BME280;63887;53.656;9.810;2023-05-25T01:12:57;102461.03;;;9.52;94.55
4273;BME280;63887;53.656;9.810;2023-05-25T01:15:24;102462.38;;;9.33;95.88
4273;BME280;63887;53.656;9.810;2023-05-25T01:17:51;102458.66;;;9.43;96.45
4273;BME280;63887;53.656;9.810;2023-05-25T01:20:18;102456.00;;;9.44;95.71
4273;BME280;63887;53.656;9.810;2023-05-25T01:22:46;102456.00;;;9.44;95.27
4273;BME280;63887;53.656;9.810;2023-05-25T01:25:17;102453.19;;;9.52;95.29
4273;BME280;63887;53.656;9.810;2023-05-25T01:27:46;102455.28;;;9.36;95.30
4273;BME280;63887;53.656;9.810;2023-05-25T01:30:14;102463.78;;;9.47;94.69
4273;BME280;63887;53.656;9.810;2023-05-25T01:32:41;102463.63;;;9.55;94.49
4273;BME280;63887;53.656;9.810;2023-05-25T01:35:08;102461.09;;;9.50;94.46
4273;BME280;63887;53.656;9.810;2023-05-25T01:37:35;102464.00;;;9.38;96.34
4273;BME280;63887;53.656;9.810;2023-05-25T01:40:03;102465.75;;;9.38;95.41
4273;BME280;63887;53.656;9.810;2023-05-25T01:42:30;102469.13;;;9.43;94.35
4273;BME280;63887;53.656;9.810;2023-05-25T01:44:56;102469.53;;;9.24;95.33
4273;BME280;63887;53.656;9.810;2023-05-25T01:47:25;102474.94;;;9.17;96.38
4273;BME280;63887;53.656;9.810;2023-05-25T01:49:54;102469.91;;;9.06;96.66
4273;BME280;63887;53.656;9.810;2023-05-25T01:52:25;102466.47;;;9.04;97.16
4273;BME280;63887;53.656;9.810;2023-05-25T01:54:52;102461.69;;;9.24;95.75
4273;BME280;63887;53.656;9.810;2023-05-25T01:57:19;102462.25;;;9.37;95.00
4273;BME280;63887;53.656;9.810;2023-05-25T01:59:47;102459.50;;;9.43;94.68
4273;BME280;63887;53.656;9.810;2023-05-25T02:02:14;102456.50;;;9.21;95.55
4273;BME280;63887;53.656;9.810;2023-05-25T02:04:42;102453.72;;;9.29;95.60
4273;BME280;63887;53.656;9.810;2023-05-25T02:07:09;102460.34;;;9.05;96.41
4273;BME280;63887;53.656;9.810;2023-05-25T02:09:36;102457.78;;;9.42;95.86
4273;BME280;63887;53.656;9.810;2023-05-25T02:12:02;102451.75;;;9.00;96.59
4273;BME280;63887;53.656;9.810;2023-05-25T02:14:30;102457.06;;;8.95;97.79
4273;BME280;63887;53.656;9.810;2023-05-25T02:16:56;102450.13;;;8.94;97.14
4273;BME280;63887;53.656;9.810;2023-05-25T02:19:25;102458.63;;;9.44;95.43
4273;BME280;63887;53.656;9.810;2023-05-25T02:21:52;102459.47;;;9.05;96.18
4273;BME280;63887;53.656;9.810;2023-05-25T02:24:18;102456.94;;;9.02;96.46
4273;BME280;63887;53.656;9.810;2023-05-25T02:26:44;102461.75;;;8.80;97.77
4273;BME280;63887;53.656;9.810;2023-05-25T02:29:10;102458.78;;;8.96;97.01
4273;BME280;63887;53.656;9.810;2023-05-25T02:31:40;102465.66;;;9.02;97.47
4273;BME280;63887;53.656;9.810;2023-05-25T02:34:06;102464.09;;;8.93;97.35
4273;BME280;63887;53.656;9.810;2023-05-25T02:36:33;102470.81;;;8.62;99.23
4273;BME280;63887;53.656;9.810;2023-05-25T02:39:00;102461.50;;;8.47;99.58
4273;BME280;63887;53.656;9.810;2023-05-25T02:41:26;102463.06;;;8.57;99.69
4273;BME280;63887;53.656;9.810;2023-05-25T02:43:52;102456.09;;;8.56;100.00
4273;BME280;63887;53.656;9.810;2023-05-25T02:46:19;102461.91;;;8.72;99.02
4273;BME280;63887;53.656;9.810;2023-05-25T02:48:48;102472.31;;;8.74;99.05
4273;BME280;63887;53.656;9.810;2023-05-25T02:51:15;102465.38;;;8.73;98.52
4273;BME280;63887;53.656;9.810;2023-05-25T02:53:41;102476.91;;;9.06;97.27
4273;BME280;63887;53.656;9.810;2023-05-25T02:56:07;102478.09;;;8.91;97.52
4273;BME280;63887;53.656;9.810;2023-05-25T02:58:35;102482.47;;;8.90;97.92
4273;BME280;63887;53.656;9.810;2023-05-25T03:01:01;102481.91;;;8.75;98.91
4273;BME280;63887;53.656;9.810;2023-05-25T03:03:29;102487.75;;;8.87;98.33
4273;BME280;63887;53.656;9.810;2023-05-25T03:05:56;102479.44;;;9.10;98.07
4273;BME280;63887;53.656;9.810;2023-05-25T03:08:23;102483.22;;;8.97;97.15
4273;BME280;63887;53.656;9.810;2023-05-25T03:10:49;102483.31;;;8.91;97.63
4273;BME280;63887;53.656;9.810;2023-05-25T03:13:15;102492.03;;;8.91;98.50
4273;BME280;63887;53.656;9.810;2023-05-25T03:15:42;102490.56;;;8.77;98.96
4273;BME280;63887;53.656;9.810;2023-05-25T03:18:08;102489.63;;;8.82;98.58
4273;BME280;63887;53.656;9.810;2023-05-25T03:20:34;102499.84;;;8.94;98.65
4273;BME280;63887;53.656;9.810;2023-05-25T03:23:02;102494.41;;;9.04;98.60
4273;BME280;63887;53.656;9.810;2023-05-25T03:25:28;102497.38;;;8.87;99.49
4273;BME280;63887;53.656;9.810;2023-05-25T03:27:55;102495.72;;;8.83;99.90
4273;BME280;63887;53.656;9.810;2023-05-25T03:30:21;102501.03;;;8.77;99.43
4273;BME280;63887;53.656;9.810;2023-05-25T03:32:48;102502.84;;;8.75;99.64
4273;BME280;63887;53.656;9.810;2023-05-25T03:35:14;102504.63;;;8.73;99.98
4273;BME280;63887;53.656;9.810;2023-05-25T03:37:41;102512.69;;;9.05;99.15
4273;BME280;63887;53.656;9.810;2023-05-25T03:40:09;102508.84;;;9.21;99.18
4273;BME280;63887;53.656;9.810;2023-05-25T03:42:36;102515.16;;;9.54;98.38
4273;BME280;63887;53.656;9.810;2023-05-25T03:45:02;102516.47;;;9.34;97.69
4273;BME280;63887;53.656;9.810;2023-05-25T03:47:29;102524.56;;;9.62;96.75
4273;BME280;63887;53.656;9.810;2023-05-25T03:49:56;102522.25;;;9.86;95.81
4273;BME280;63887;53.656;9.810;2023-05-25T03:52:22;102522.75;;;9.65;96.66
4273;BME280;63887;53.656;9.810;2023-05-25T03:54:48;102529.88;;;9.97;93.77
4273;BME280;63887;53.656;9.810;2023-05-25T03:57:16;102525.59;;;9.93;93.77
4273;BME280;63887;53.656;9.810;2023-05-25T03:59:42;102530.06;;;9.90;94.09
4273;BME280;63887;53.656;9.810;2023-05-25T04:02:08;102526.59;;;9.88;93.54
4273;BME280;63887;53.656;9.810;2023-05-25T04:04:35;102543.78;;;9.62;94.81
4273;BME280;63887;53.656;9.810;2023-05-25T04:07:02;102531.78;;;9.52;95.83
4273;BME280;63887;53.656;9.810;2023-05-25T04:09:28;102533.81;;;9.78;94.60
4273;BME280;63887;53.656;9.810;2023-05-25T04:11:55;102538.13;;;9.80;93.73
4273;BME280;63887;53.656;9.810;2023-05-25T04:14:22;102540.16;;;10.05;92.90
4273;BME280;63887;53.656;9.810;2023-05-25T04:16:48;102536.34;;;9.82;93.59
4273;BME280;63887;53.656;9.810;2023-05-25T04:19:15;102535.69;;;9.73;94.39
4273;BME280;63887;53.656;9.810;2023-05-25T04:21:41;102537.78;;;9.94;92.89
4273;BME280;63887;53.656;9.810;2023-05-25T04:24:07;102546.59;;;9.92;93.84
4273;BME280;63887;53.656;9.810;2023-05-25T04:26:34;102540.78;;;9.79;93.43
4273;BME280;63887;53.656;9.810;2023-05-25T04:29:00;102538.00;;;9.86;93.50
4273;BME280;63887;53.656;9.810;2023-05-25T04:31:28;102537.44;;;9.72;93.53
4273;BME280;63887;53.656;9.810;2023-05-25T04:33:55;102541.47;;;9.87;93.53
4273;BME280;63887;53.656;9.810;2023-05-25T04:36:23;102540.94;;;9.73;93.98
4273;BME280;63887;53.656;9.810;2023-05-25T04:38:49;102540.97;;;9.71;93.84
4273;BME280;63887;53.656;9.810;2023-05-25T04:41:16;102543.50;;;10.11;93.35
4273;BME280;63887;53.656;9.810;2023-05-25T04:43:42;102545.66;;;9.94;95.06
4273;BME280;63887;53.656;9.810;2023-05-25T04:46:09;102546.09;;;10.13;92.55
4273;BME280;63887;53.656;9.810;2023-05-25T04:48:39;102546.84;;;10.18;91.66
4273;BME280;63887;53.656;9.810;2023-05-25T04:51:05;102552.41;;;10.04;93.71
4273;BME280;63887;53.656;9.810;2023-05-25T04:53:32;102561.19;;;10.74;90.18
4273;BME280;63887;53.656;9.810;2023-05-25T04:55:59;102558.38;;;10.81;89.58
4273;BME280;63887;53.656;9.810;2023-05-25T04:58:25;102552.50;;;10.71;90.16
4273;BME280;63887;53.656;9.810;2023-05-25T05:00:53;102558.91;;;10.61;89.95
4273;BME280;63887;53.656;9.810;2023-05-25T05:03:19;102567.50;;;10.66;90.97
4273;BME280;63887;53.656;9.810;2023-05-25T05:05:47;102554.22;;;11.04;88.94
4273;BME280;63887;53.656;9.810;2023-05-25T05:08:13;102555.13;;;10.71;90.13
4273;BME280;63887;53.656;9.810;2023-05-25T05:10:40;102557.09;;;10.95;89.72
4273;BME280;63887;53.656;9.810;2023-05-25T05:13:06;102560.00;;;10.85;89.06
4273;BME280;63887;53.656;9.810;2023-05-25T05:15:32;102554.75;;;10.85;89.22
4273;BME280;63887;53.656;9.810;2023-05-25T05:17:58;102564.41;;;10.84;88.81
4273;BME280;63887;53.656;9.810;2023-05-25T05:20:25;102560.81;;;11.19;87.75
4273;BME280;63887;53.656;9.810;2023-05-25T05:22:53;102552.97;;;11.18;87.99
4273;BME280;63887;53.656;9.810;2023-05-25T05:25:19;102559.50;;;11.63;85.01
4273;BME280;63887;53.656;9.810;2023-05-25T05:27:45;102567.72;;;11.53;85.67
4273;BME280;63887;53.656;9.810;2023-05-25T05:30:12;102575.81;;;11.45;86.37
4273;BME280;63887;53.656;9.810;2023-05-25T05:32:38;102577.56;;;11.45;86.30
4273;BME280;63887;53.656;9.810;2023-05-25T05:35:05;102576.25;;;11.59;85.84
4273;BME280;63887;53.656;9.810;2023-05-25T05:37:31;102580.22;;;12.02;83.23
4273;BME280;63887;53.656;9.810;2023-05-25T05:39:59;102575.03;;;12.01;83.63
4273;BME280;63887;53.656;9.810;2023-05-25T05:42:25;102569.38;;;12.64;81.29
4273;BME280;63887;53.656;9.810;2023-05-25T05:44:51;102577.22;;;12.41;80.88
4273;BME280;63887;53.656;9.810;2023-05-25T05:47:18;102578.47;;;13.05;80.02
4273;BME280;63887;53.656;9.810;2023-05-25T05:49:44;102574.44;;;14.54;73.22
4273;BME280;63887;53.656;9.810;2023-05-25T05:52:11;102580.00;;;14.69;70.56
4273;BME280;63887;53.656;9.810;2023-05-25T05:54:37;102572.72;;;15.33;68.04
4273;BME280;63887;53.656;9.810;2023-05-25T05:57:05;102581.88;;;16.19;65.17
4273;BME280;63887;53.656;9.810;2023-05-25T05:59:31;102588.66;;;15.88;65.40
4273;BME280;63887;53.656;9.810;2023-05-25T06:01:57;102580.09;;;17.39;61.16
4273;BME280;63887;53.656;9.810;2023-05-25T06:04:24;102590.66;;;17.56;58.13
4273;BME280;63887;53.656;9.810;2023-05-25T06:06:52;102587.94;;;17.57;58.41
4273;BME280;63887;53.656;9.810;2023-05-25T06:09:18;102584.97;;;16.63;61.23
4273;BME280;63887;53.656;9.810;2023-05-25T06:11:45;102575.63;;;17.23;59.43
4273;BME280;63887;53.656;9.810;2023-05-25T06:14:13;102583.84;;;17.83;56.26
4273;BME280;63887;53.656;9.810;2023-05-25T06:16:40;102572.31;;;20.28;49.77
4273;BME280;63887;53.656;9.810;2023-05-25T06:19:07;102579.91;;;20.34;47.54
4273;BME280;63887;53.656;9.810;2023-05-25T06:21:33;102570.41;;;21.33;45.97
4273;BME280;63887;53.656;9.810;2023-05-25T06:24:00;102571.97;;;20.47;48.43
4273;BME280;63887;53.656;9.810;2023-05-25T06:26:27;102570.84;;;20.89;45.38
4273;BME280;63887;53.656;9.810;2023-05-25T06:28:53;102575.44;;;21.75;42.29
4273;BME280;63887;53.656;9.810;2023-05-25T06:31:21;102572.31;;;22.28;41.67
4273;BME280;63887;53.656;9.810;2023-05-25T06:33:47;102576.25;;;21.51;40.83
4273;BME280;63887;53.656;9.810;2023-05-25T06:36:13;102585.03;;;20.90;42.55
4273;BME280;63887;53.656;9.810;2023-05-25T06:38:40;102584.78;;;20.54;44.79
4273;BME280;63887;53.656;9.810;2023-05-25T06:41:06;102591.38;;;19.68;45.67
4273;BME280;63887;53.656;9.810;2023-05-25T06:43:33;102589.28;;;20.00;43.77
4273;BME280;63887;53.656;9.810;2023-05-25T06:46:00;102602.09;;;18.35;48.94
4273;BME280;63887;53.656;9.810;2023-05-25T06:48:27;102590.63;;;18.95;47.86
4273;BME280;63887;53.656;9.810;2023-05-25T06:50:53;102591.03;;;20.14;44.21
4273;BME280;63887;53.656;9.810;2023-05-25T06:53:20;102596.03;;;19.36;45.96
4273;BME280;63887;53.656;9.810;2023-05-25T06:55:46;102607.66;;;20.17;44.41
4273;BME280;63887;53.656;9.810;2023-05-25T06:58:13;102599.88;;;20.14;44.13
4273;BME280;63887;53.656;9.810;2023-05-25T07:00:39;102600.53;;;20.45;43.27
4273;BME280;63887;53.656;9.810;2023-05-25T07:03:05;102596.31;;;20.68;42.31
4273;BME280;63887;53.656;9.810;2023-05-25T07:05:33;102593.50;;;20.44;42.26
4273;BME280;63887;53.656;9.810;2023-05-25T07:07:59;102588.34;;;21.06;42.04
4273;BME280;63887;53.656;9.810;2023-05-25T07:10:26;102595.25;;;21.59;40.81
4273;BME280;63887;53.656;9.810;2023-05-25T07:12:52;102602.97;;;21.26;40.38
4273;BME280;63887;53.656;9.810;2023-05-25T07:15:18;102597.53;;;21.14;41.04
4273;BME280;63887;53.656;9.810;2023-05-25T07:17:45;102599.75;;;21.21;41.89
4273;BME280;63887;53.656;9.810;2023-05-25T07:20:12;102598.44;;;19.96;42.66
4273;BME280;63887;53.656;9.810;2023-05-25T07:22:39;102603.34;;;17.82;48.04
4273;BME280;63887;53.656;9.810;2023-05-25T07:25:06;102604.78;;;19.10;46.78
4273;BME280;63887;53.656;9.810;2023-05-25T07:27:32;102608.19;;;19.12;45.71
4273;BME280;63887;53.656;9.810;2023-05-25T07:30:00;102612.88;;;19.22;47.17
4273;BME280;63887;53.656;9.810;2023-05-25T07:32:26;102609.06;;;20.23;43.71
4273;BME280;63887;53.656;9.810;2023-05-25T07:34:52;102604.78;;;21.00;41.56
4273;BME280;63887;53.656;9.810;2023-05-25T07:37:19;102609.97;;;20.76;40.32
4273;BME280;63887;53.656;9.810;2023-05-25T07:39:46;102600.19;;;21.02;40.53
4273;BME280;63887;53.656;9.810;2023-05-25T07:42:13;102610.13;;;21.00;40.85
4273;BME280;63887;53.656;9.810;2023-05-25T07:44:44;102601.59;;;19.88;43.31
4273;BME280;63887;53.656;9.810;2023-05-25T07:47:10;102600.41;;;19.51;42.45
4273;BME280;63887;53.656;9.810;2023-05-25T07:49:37;102606.94;;;19.17;44.98
4273;BME280;63887;53.656;9.810;2023-05-25T07:52:03;102606.38;;;19.26;44.66
4273;BME280;63887;53.656;9.810;2023-05-25T07:54:30;102607.19;;;18.54;45.88
4273;BME280;63887;53.656;9.810;2023-05-25T07:56:58;102618.28;;;18.01;48.56
4273;BME280;63887;53.656;9.810;2023-05-25T07:59:25;102621.00;;;17.99;51.39
4273;BME280;63887;53.656;9.810;2023-05-25T08:01:51;102620.75;;;18.04;52.91
4273;BME280;63887;53.656;9.810;2023-05-25T08:04:17;102626.03;;;18.20;51.47
4273;BME280;63887;53.656;9.810;2023-05-25T08:06:43;102628.19;;;17.97;51.84
4273;BME280;63887;53.656;9.810;2023-05-25T08:09:10;102625.63;;;17.96;52.90
4273;BME280;63887;53.656;9.810;2023-05-25T08:11:37;102628.97;;;17.50;51.88
4273;BME280;63887;53.656;9.810;2023-05-25T08:14:05;102630.84;;;17.33;53.56
4273;BME280;63887;53.656;9.810;2023-05-25T08:16:31;102635.13;;;17.35;53.06
4273;BME280;63887;53.656;9.810;2023-05-25T08:18:57;102636.84;;;17.52;50.79
4273;BME280;63887;53.656;9.810;2023-05-25T08:21:25;102633.94;;;17.74;49.62
4273;BME280;63887;53.656;9.810;2023-05-25T08:23:51;102632.78;;;17.62;51.81
4273;BME280;63887;53.656;9.810;2023-05-25T08:26:18;102642.28;;;17.33;50.16
4273;BME280;63887;53.656;9.810;2023-05-25T08:28:44;102629.53;;;17.57;49.84
4273;BME280;63887;53.656;9.810;2023-05-25T08:31:12;102631.69;;;17.33;48.29
4273;BME280;63887;53.656;9.810;2023-05-25T08:33:38;102634.50;;;16.97;49.96
4273;BME280;63887;53.656;9.810;2023-05-25T08:36:05;102628.78;;;17.05;52.39
4273;BME280;63887;53.656;9.810;2023-05-25T08:38:33;102626.06;;;16.89;50.83
4273;BME280;63887;53.656;9.810;2023-05-25T08:41:02;102632.38;;;17.04;52.63
4273;BME280;63887;53.656;9.810;2023-05-25T08:43:29;102634.03;;;16.72;51.86
4273;BME280;63887;53.656;9.810;2023-05-25T08:45:55;102635.03;;;16.86;53.00
4273;BME280;63887;53.656;9.810;2023-05-25T08:48:27;102639.63;;;17.00;54.64
4273;BME280;63887;53.656;9.810;2023-05-25T08:50:54;102646.09;;;16.77;50.31
4273;BME280;63887;53.656;9.810;2023-05-25T08:53:21;102640.53;;;17.16;52.76
4273;BME280;63887;53.656;9.810;2023-05-25T08:55:48;102629.25;;;17.13;52.22
4273;BME280;63887;53.656;9.810;2023-05-25T08:58:18;102633.78;;;16.93;50.98
4273;BME280;63887;53.656;9.810;2023-05-25T09:00:47;102648.91;;;16.74;55.02
4273;BME280;63887;53.656;9.810;2023-05-25T09:03:15;102646.56;;;16.85;50.71
4273;BME280;63887;53.656;9.810;2023-05-25T09:05:44;102649.06;;;16.88;50.20
4273;BME280;63887;53.656;9.810;2023-05-25T09:08:10;102651.19;;;16.63;51.30
4273;BME280;63887;53.656;9.810;2023-05-25T09:10:37;102644.13;;;16.81;53.82
4273;BME280;63887;53.656;9.810;2023-05-25T09:13:04;102647.97;;;16.75;51.29
4273;BME280;63887;53.656;9.810;2023-05-25T09:15:30;102652.56;;;16.72;51.78
4273;BME280;63887;53.656;9.810;2023-05-25T09:17:57;102654.13;;;16.76;51.39
4273;BME280;63887;53.656;9.810;2023-05-25T09:20:23;102661.72;;;16.64;52.61
4273;BME280;63887;53.656;9.810;2023-05-25T09:22:56;102661.09;;;16.59;52.25
4273;BME280;63887;53.656;9.810;2023-05-25T09:25:23;102660.25;;;16.59;51.61
4273;BME280;63887;53.656;9.810;2023-05-25T09:27:51;102666.72;;;16.34;52.35
4273;BME280;63887;53.656;9.810;2023-05-25T09:30:17;102668.63;;;16.50;53.11
4273;BME280;63887;53.656;9.810;2023-05-25T09:32:44;102663.09;;;16.37;53.90
4273;BME280;63887;53.656;9.810;2023-05-25T09:35:11;102670.28;;;16.52;52.72
4273;BME280;63887;53.656;9.810;2023-05-25T09:37:37;102670.09;;;16.74;52.75
4273;BME280;63887;53.656;9.810;2023-05-25T09:40:06;102674.97;;;16.64;52.95
4273;BME280;63887;53.656;9.810;2023-05-25T09:42:34;102682.63;;;16.34;53.64
4273;BME280;63887;53.656;9.810;2023-05-25T09:45:01;102671.72;;;16.23;49.76
4273;BME280;63887;53.656;9.810;2023-05-25T09:47:28;102672.94;;;16.52;53.01
4273;BME280;63887;53.656;9.810;2023-05-25T09:49:54;102671.66;;;16.95;50.02
4273;BME280;63887;53.656;9.810;2023-05-25T09:52:21;102676.75;;;16.64;52.38
4273;BME280;63887;53.656;9.810;2023-05-25T09:54:48;102676.66;;;16.67;50.75
4273;BME280;63887;53.656;9.810;2023-05-25T09:57:17;102669.56;;;16.67;52.87
4273;BME280;63887;53.656;9.810;2023-05-25T09:59:43;102670.84;;;16.59;51.44
4273;BME280;63887;53.656;9.810;2023-05-25T10:02:10;102669.09;;;16.77;52.28
4273;BME280;63887;53.656;9.810;2023-05-25T10:04:36;102676.84;;;16.62;48.96
4273;BME280;63887;53.656;9.810;2023-05-25T10:07:03;102676.28;;;16.56;50.19
4273;BME280;63887;53.656;9.810;2023-05-25T10:09:30;102677.34;;;16.71;54.05
4273;BME280;63887;53.656;9.810;2023-05-25T10:11:56;102675.94;;;16.81;50.64
4273;BME280;63887;53.656;9.810;2023-05-25T10:14:26;102679.06;;;16.72;51.51
4273;BME280;63887;53.656;9.810;2023-05-25T10:16:53;102676.78;;;16.81;57.07
4273;BME280;63887;53.656;9.810;2023-05-25T10:19:24;102678.75;;;16.78;56.70
4273;BME280;63887;53.656;9.810;2023-05-25T10:21:54;102670.88;;;17.11;53.21
4273;BME280;63887;53.656;9.810;2023-05-25T10:24:23;102670.25;;;17.06;51.85
4273;BME280;63887;53.656;9.810;2023-05-25T10:26:52;102670.78;;;16.95;51.06
4273;BME280;63887;53.656;9.810;2023-05-25T10:29:19;102667.91;;;17.17;52.70
4273;BME280;63887;53.656;9.810;2023-05-25T10:31:47;102682.47;;;17.25;52.37
4273;BME280;63887;53.656;9.810;2023-05-25T10:34:13;102686.72;;;17.12;49.97
4273;BME280;63887;53.656;9.810;2023-05-25T10:36:41;102682.59;;;16.89;49.18
4273;BME280;63887;53.656;9.810;2023-05-25T10:39:07;102687.88;;;16.72;49.44
4273;BME280;63887;53.656;9.810;2023-05-25T10:41:34;102687.09;;;17.05;49.26
4273;BME280;63887;53.656;9.810;2023-05-25T10:44:00;102682.56;;;17.07;49.27
4273;BME280;63887;53.656;9.810;2023-05-25T10:46:27;102683.59;;;16.87;53.32
4273;BME280;63887;53.656;9.810;2023-05-25T10:48:55;102687.78;;;17.08;53.07
4273;BME280;63887;53.656;9.810;2023-05-25T10:51:35;102677.75;;;17.15;51.36
4273;BME280;63887;53.656;9.810;2023-05-25T10:54:01;102682.00;;;17.35;55.57
4273;BME280;63887;53.656;9.810;2023-05-25T10:56:28;102677.50;;;17.52;51.61
4273;BME280;63887;53.656;9.810;2023-05-25T10:58:54;102673.78;;;17.56;55.66
4273;BME280;63887;53.656;9.810;2023-05-25T11:01:20;102672.66;;;17.61;52.83
4273;BME280;63887;53.656;9.810;2023-05-25T11:03:48;102682.78;;;17.37;49.62
4273;BME280;63887;53.656;9.810;2023-05-25T11:06:17;102675.56;;;17.06;50.70
4273;BME280;63887;53.656;9.810;2023-05-25T11:08:49;102681.72;;;16.89;51.87
4273;BME280;63887;53.656;9.810;2023-05-25T11:11:15;102673.84;;;17.05;52.14
4273;BME280;63887;53.656;9.810;2023-05-25T11:13:43;102662.69;;;17.15;52.44
4273;BME280;63887;53.656;9.810;2023-05-25T11:16:13;102679.28;;;17.19;53.70
4273;BME280;63887;53.656;9.810;2023-05-25T11:18:39;102677.91;;;17.12;52.87
4273;BME280;63887;53.656;9.810;2023-05-25T11:21:10;102675.31;;;17.10;56.13
4273;BME280;63887;53.656;9.810;2023-05-25T11:23:39;102664.50;;;17.15;55.07
4273;BME280;63887;53.656;9.810;2023-05-25T11:26:18;102666.72;;;17.22;54.62
4273;BME280;63887;53.656;9.810;2023-05-25T11:28:46;102660.25;;;17.28;50.57
4273;BME280;63887;53.656;9.810;2023-05-25T11:31:12;102661.25;;;17.43;52.59
4273;BME280;63887;53.656;9.810;2023-05-25T11:33:38;102665.28;;;17.50;49.44
4273;BME280;63887;53.656;9.810;2023-05-25T11:36:05;102654.28;;;17.40;50.65
4273;BME280;63887;53.656;9.810;2023-05-25T11:38:33;102655.09;;;17.42;49.40
4273;BME280;63887;53.656;9.810;2023-05-25T11:41:03;102648.88;;;17.09;50.53
4273;BME280;63887;53.656;9.810;2023-05-25T11:43:29;102651.78;;;17.04;50.51
4273;BME280;63887;53.656;9.810;2023-05-25T11:45:56;102658.28;;;16.98;54.18
4273;BME280;63887;53.656;9.810;2023-05-25T11:48:24;102654.75;;;17.15;55.42
4273;BME280;63887;53.656;9.810;2023-05-25T11:51:02;102653.09;;;17.13;55.14
4273;BME280;63887;53.656;9.810;2023-05-25T11:53:29;102650.91;;;17.21;52.79
4273;BME280;63887;53.656;9.810;2023-05-25T11:55:55;102654.78;;;17.31;54.25
4273;BME280;63887;53.656;9.810;2023-05-25T11:58:23;102650.84;;;17.38;53.28
4273;BME280;63887;53.656;9.810;2023-05-25T12:00:49;102659.41;;;17.27;52.62
4273;BME280;63887;53.656;9.810;2023-05-25T12:03:28;102648.59;;;17.48;54.52
4273;BME280;63887;53.656;9.810;2023-05-25T12:05:55;102652.56;;;17.39;53.49
4273;BME280;63887;53.656;9.810;2023-05-25T12:08:30;102644.81;;;17.52;53.74
4273;BME280;63887;53.656;9.810;2023-05-25T12:10:56;102649.78;;;17.42;52.74
4273;BME280;63887;53.656;9.810;2023-05-25T12:13:24;102648.31;;;17.52;51.51
4273;BME280;63887;53.656;9.810;2023-05-25T12:15:51;102648.00;;;17.58;52.80
4273;BME280;63887;53.656;9.810;2023-05-25T12:18:17;102648.94;;;17.57;48.67
4273;BME280;63887;53.656;9.810;2023-05-25T12:20:44;102652.53;;;17.23;50.43
4273;BME280;63887;53.656;9.810;2023-05-25T12:23:10;102647.72;;;17.47;51.03
4273;BME280;63887;53.656;9.810;2023-05-25T12:25:37;102640.97;;;17.42;52.17
4273;BME280;63887;53.656;9.810;2023-05-25T12:28:09;102643.38;;;17.62;49.96
4273;BME280;63887;53.656;9.810;2023-05-25T12:30:37;102652.69;;;17.53;51.53
4273;BME280;63887;53.656;9.810;2023-05-25T12:33:03;102639.59;;;17.50;52.39
4273;BME280;63887;53.656;9.810;2023-05-25T12:35:30;102648.84;;;17.43;51.21
4273;BME280;63887;53.656;9.810;2023-05-25T12:38:08;102647.81;;;17.46;51.67
4273;BME280;63887;53.656;9.810;2023-05-25T12:40:35;102637.28;;;17.44;52.85
4273;BME280;63887;53.656;9.810;2023-05-25T12:43:01;102638.69;;;17.34;54.92
4273;BME280;63887;53.656;9.810;2023-05-25T12:45:27;102639.03;;;17.61;53.52
4273;BME280;63887;53.656;9.810;2023-05-25T12:47:55;102630.81;;;17.66;52.03
4273;BME280;63887;53.656;9.810;2023-05-25T12:50:21;102624.13;;;17.58;54.60
4273;BME280;63887;53.656;9.810;2023-05-25T12:52:48;102635.28;;;17.81;51.24
4273;BME280;63887;53.656;9.810;2023-05-25T12:55:18;102632.22;;;17.88;50.01
4273;BME280;63887;53.656;9.810;2023-05-25T12:57:44;102630.84;;;17.97;50.76
4273;BME280;63887;53.656;9.810;2023-05-25T13:00:11;102637.09;;;17.80;49.61
4273;BME280;63887;53.656;9.810;2023-05-25T13:02:40;102629.41;;;17.76;54.32
4273;BME280;63887;53.656;9.810;2023-05-25T13:05:16;102627.88;;;17.72;51.55